sensor_id;sensor_type;location;lat;lon;timestamp;P1;durP1;ratioP1;P2;durP2;ratioP2
18224;SDS011;9237;48.590;8.854;2023-07-30T00:01:52;0.70;;;0.70;;
18224;SDS011;9237;48.590;8.854;2023-07-30T00:04:18;0.60;;;0.60;;
18224;SDS011;9237;48.590;8.854;2023-07-30T00:06:46;0.70;;;0.70;;
18224;SDS011;9237;48.590;8.854;2023-07-30T00:09:12;0.60;;;0.60;;
18224;SDS011;9237;48.590;8.854;2023-07-30T00:11:40;0.60;;;0.60;;
18224;SDS011;9237;48.590;8.854;2023-07-30T00:14:07;0.60;;;0.60;;
18224;SDS011;9237;48.590;8.854;2023-07-30T00:16:34;0.60;;;0.60;;
18224;SDS011;9237;48.590;8.854;2023-07-30T00:19:01;0.60;;;0.60;;
18224;SDS011;9237;48.590;8.854;2023-07-30T00:21:27;0.60;;;0.60;;
18224;SDS011;9237;48.590;8.854;2023-07-30T00:23:54;0.60;;;0.60;;
18224;SDS011;9237;48.590;8.854;2023-07-30T00:26:21;0.60;;;0.60;;
18224;SDS011;9237;48.590;8.854;2023-07-30T00:28:52;0.60;;;0.60;;
18224;SDS011;9237;48.590;8.854;2023-07-30T00:31:19;0.60;;;0.60;;
18224;SDS011;9237;48.590;8.854;2023-07-30T00:33:46;0.60;;;0.60;;
18224;SDS011;9237;48.590;8.854;2023-07-30T00:36:12;0.60;;;0.60;;
18224;SDS011;9237;48.590;8.854;2023-07-30T00:38:39;0.60;;;0.60;;
18224;SDS011;9237;48.590;8.854;2023-07-30T00:41:06;0.60;;;0.60;;
18224;SDS011;9237;48.590;8.854;2023-07-30T00:43:33;0.67;;;0.67;;
18224;SDS011;9237;48.590;8.854;2023-07-30T00:46:01;0.60;;;0.60;;
18224;SDS011;9237;48.590;8.854;2023-07-30T00:48:28;0.60;;;0.60;;
18224;SDS011;9237;48.590;8.854;2023-07-30T00:50:55;0.60;;;0.60;;
18224;SDS011;9237;48.590;8.854;2023-07-30T00:53:23;0.50;;;0.50;;
18224;SDS011;9237;48.590;8.854;2023-07-30T00:55:52;0.60;;;0.60;;
18224;SDS011;9237;48.590;8.854;2023-07-30T00:58:19;0.60;;;0.60;;
18224;SDS011;9237;48.590;8.854;2023-07-30T01:00:47;0.60;;;0.60;;
18224;SDS011;9237;48.590;8.854;2023-07-30T01:03:15;0.70;;;0.70;;
18224;SDS011;9237;48.590;8.854;2023-07-30T01:05:42;0.67;;;0.67;;
18224;SDS011;9237;48.590;8.854;2023-07-30T01:08:11;0.60;;;0.60;;
18224;SDS011;9237;48.590;8.854;2023-07-30T01:10:38;0.60;;;0.60;;
18224;SDS011;9237;48.590;8.854;2023-07-30T01:13:07;0.67;;;0.67;;
18224;SDS011;9237;48.590;8.854;2023-07-30T01:15:35;0.60;;;0.60;;
18224;SDS011;9237;48.590;8.854;2023-07-30T01:18:03;0.70;;;0.70;;
18224;SDS011;9237;48.590;8.854;2023-07-30T01:20:31;0.70;;;0.70;;
18224;SDS011;9237;48.590;8.854;2023-07-30T01:23:00;0.60;;;0.60;;
18224;SDS011;9237;48.590;8.854;2023-07-30T01:25:27;0.60;;;0.60;;
18224;SDS011;9237;48.590;8.854;2023-07-30T01:27:58;0.60;;;0.60;;
18224;SDS011;9237;48.590;8.854;2023-07-30T01:30:27;0.60;;;0.60;;
18224;SDS011;9237;48.590;8.854;2023-07-30T01:32:55;0.60;;;0.60;;
18224;SDS011;9237;48.590;8.854;2023-07-30T01:35:25;0.60;;;0.60;;
18224;SDS011;9237;48.590;8.854;2023-07-30T01:37:53;0.60;;;0.60;;
18224;SDS011;9237;48.590;8.854;2023-07-30T01:40:22;0.60;;;0.60;;
18224;SDS011;9237;48.590;8.854;2023-07-30T01:42:49;0.70;;;0.70;;
18224;SDS011;9237;48.590;8.854;2023-07-30T01:45:16;0.60;;;0.60;;
18224;SDS011;9237;48.590;8.854;2023-07-30T01:47:43;0.60;;;0.60;;
18224;SDS011;9237;48.590;8.854;2023-07-30T01:50:10;0.60;;;0.60;;
18224;SDS011;9237;48.590;8.854;2023-07-30T01:52:37;0.60;;;0.60;;
18224;SDS011;9237;48.590;8.854;2023-07-30T01:55:04;0.60;;;0.60;;
18224;SDS011;9237;48.590;8.854;2023-07-30T01:57:32;0.70;;;0.70;;
18224;SDS011;9237;48.590;8.854;2023-07-30T01:59:59;0.70;;;0.70;;
18224;SDS011;9237;48.590;8.854;2023-07-30T02:02:26;0.70;;;0.70;;
18224;SDS011;9237;48.590;8.854;2023-07-30T02:04:53;0.70;;;0.70;;
18224;SDS011;9237;48.590;8.854;2023-07-30T02:07:20;0.60;;;0.60;;
18224;SDS011;9237;48.590;8.854;2023-07-30T02:09:47;0.67;;;0.67;;
18224;SDS011;9237;48.590;8.854;2023-07-30T02:12:14;0.60;;;0.60;;
18224;SDS011;9237;48.590;8.854;2023-07-30T02:14:42;0.60;;;0.60;;
18224;SDS011;9237;48.590;8.854;2023-07-30T02:17:09;0.60;;;0.60;;
18224;SDS011;9237;48.590;8.854;2023-07-30T02:19:36;0.60;;;0.60;;
18224;SDS011;9237;48.590;8.854;2023-07-30T02:22:03;0.70;;;0.70;;
18224;SDS011;9237;48.590;8.854;2023-07-30T02:24:30;0.70;;;0.70;;
18224;SDS011;9237;48.590;8.854;2023-07-30T02:26:56;0.70;;;0.70;;
18224;SDS011;9237;48.590;8.854;2023-07-30T02:29:23;0.70;;;0.70;;
18224;SDS011;9237;48.590;8.854;2023-07-30T02:31:51;0.60;;;0.60;;
18224;SDS011;9237;48.590;8.854;2023-07-30T02:34:18;0.60;;;0.60;;
18224;SDS011;9237;48.590;8.854;2023-07-30T02:36:45;0.70;;;0.70;;
18224;SDS011;9237;48.590;8.854;2023-07-30T02:39:12;0.70;;;0.70;;
18224;SDS011;9237;48.590;8.854;2023-07-30T02:41:38;0.60;;;0.60;;
18224;SDS011;9237;48.590;8.854;2023-07-30T02:44:05;0.70;;;0.70;;
18224;SDS011;9237;48.590;8.854;2023-07-30T02:46:32;0.60;;;0.60;;
18224;SDS011;9237;48.590;8.854;2023-07-30T02:49:00;0.60;;;0.60;;
18224;SDS011;9237;48.590;8.854;2023-07-30T02:51:27;0.60;;;0.60;;
18224;SDS011;9237;48.590;8.854;2023-07-30T02:53:55;0.60;;;0.60;;
18224;SDS011;9237;48.590;8.854;2023-07-30T02:56:24;0.60;;;0.60;;
18224;SDS011;9237;48.590;8.854;2023-07-30T02:58:51;0.60;;;0.60;;
18224;SDS011;9237;48.590;8.854;2023-07-30T03:01:17;0.70;;;0.70;;
18224;SDS011;9237;48.590;8.854;2023-07-30T03:03:44;0.60;;;0.60;;
18224;SDS011;9237;48.590;8.854;2023-07-30T03:06:12;0.70;;;0.70;;
18224;SDS011;9237;48.590;8.854;2023-07-30T03:08:41;0.60;;;0.60;;
18224;SDS011;9237;48.590;8.854;2023-07-30T03:11:08;0.60;;;0.60;;
18224;SDS011;9237;48.590;8.854;2023-07-30T03:13:35;0.63;;;0.63;;
18224;SDS011;9237;48.590;8.854;2023-07-30T03:16:02;0.60;;;0.60;;
18224;SDS011;9237;48.590;8.854;2023-07-30T03:18:29;0.70;;;0.70;;
18224;SDS011;9237;48.590;8.854;2023-07-30T03:20:58;0.70;;;0.70;;
18224;SDS011;9237;48.590;8.854;2023-07-30T03:23:26;0.70;;;0.70;;
18224;SDS011;9237;48.590;8.854;2023-07-30T03:25:53;0.70;;;0.70;;
18224;SDS011;9237;48.590;8.854;2023-07-30T03:28:20;0.70;;;0.70;;
18224;SDS011;9237;48.590;8.854;2023-07-30T03:30:47;0.70;;;0.70;;
18224;SDS011;9237;48.590;8.854;2023-07-30T03:33:14;0.70;;;0.70;;
18224;SDS011;9237;48.590;8.854;2023-07-30T03:35:40;0.70;;;0.70;;
18224;SDS011;9237;48.590;8.854;2023-07-30T03:38:07;0.60;;;0.60;;
18224;SDS011;9237;48.590;8.854;2023-07-30T03:40:35;0.70;;;0.70;;
18224;SDS011;9237;48.590;8.854;2023-07-30T03:43:02;0.70;;;0.70;;
18224;SDS011;9237;48.590;8.854;2023-07-30T03:45:29;0.70;;;0.70;;
18224;SDS011;9237;48.590;8.854;2023-07-30T03:47:56;0.70;;;0.70;;
18224;SDS011;9237;48.590;8.854;2023-07-30T03:50:22;0.60;;;0.60;;
18224;SDS011;9237;48.590;8.854;2023-07-30T03:52:49;0.60;;;0.60;;
18224;SDS011;9237;48.590;8.854;2023-07-30T03:55:16;0.63;;;0.63;;
18224;SDS011;9237;48.590;8.854;2023-07-30T03:57:44;0.60;;;0.60;;
18224;SDS011;9237;48.590;8.854;2023-07-30T04:00:11;0.60;;;0.60;;
18224;SDS011;9237;48.590;8.854;2023-07-30T04:02:38;0.70;;;0.70;;
18224;SDS011;9237;48.590;8.854;2023-07-30T04:05:05;0.60;;;0.60;;
18224;SDS011;9237;48.590;8.854;2023-07-30T04:07:31;0.60;;;0.60;;
18224;SDS011;9237;48.590;8.854;2023-07-30T04:09:58;0.60;;;0.60;;
18224;SDS011;9237;48.590;8.854;2023-07-30T04:12:25;0.60;;;0.60;;
18224;SDS011;9237;48.590;8.854;2023-07-30T04:14:53;0.60;;;0.60;;
18224;SDS011;9237;48.590;8.854;2023-07-30T04:17:20;0.70;;;0.70;;
18224;SDS011;9237;48.590;8.854;2023-07-30T04:19:46;0.60;;;0.60;;
18224;SDS011;9237;48.590;8.854;2023-07-30T04:22:13;0.60;;;0.60;;
18224;SDS011;9237;48.590;8.854;2023-07-30T04:24:40;0.60;;;0.60;;
18224;SDS011;9237;48.590;8.854;2023-07-30T04:27:07;0.60;;;0.60;;
18224;SDS011;9237;48.590;8.854;2023-07-30T04:29:33;0.60;;;0.60;;
18224;SDS011;9237;48.590;8.854;2023-07-30T04:32:02;0.60;;;0.60;;
18224;SDS011;9237;48.590;8.854;2023-07-30T04:34:29;0.60;;;0.60;;
18224;SDS011;9237;48.590;8.854;2023-07-30T04:36:55;0.60;;;0.60;;
18224;SDS011;9237;48.590;8.854;2023-07-30T04:39:22;0.60;;;0.60;;
18224;SDS011;9237;48.590;8.854;2023-07-30T04:41:49;0.60;;;0.60;;
18224;SDS011;9237;48.590;8.854;2023-07-30T04:44:16;0.60;;;0.60;;
18224;SDS011;9237;48.590;8.854;2023-07-30T04:46:42;0.60;;;0.60;;
18224;SDS011;9237;48.590;8.854;2023-07-30T04:49:11;0.70;;;0.70;;
18224;SDS011;9237;48.590;8.854;2023-07-30T04:51:37;0.60;;;0.60;;
18224;SDS011;9237;48.590;8.854;2023-07-30T04:54:04;0.60;;;0.60;;
18224;SDS011;9237;48.590;8.854;2023-07-30T04:56:31;0.60;;;0.60;;
18224;SDS011;9237;48.590;8.854;2023-07-30T04:58:58;0.60;;;0.60;;
18224;SDS011;9237;48.590;8.854;2023-07-30T05:01:25;0.60;;;0.60;;
18224;SDS011;9237;48.590;8.854;2023-07-30T05:03:52;0.60;;;0.60;;
18224;SDS011;9237;48.590;8.854;2023-07-30T05:06:20;0.70;;;0.70;;
18224;SDS011;9237;48.590;8.854;2023-07-30T05:08:47;0.70;;;0.70;;
18224;SDS011;9237;48.590;8.854;2023-07-30T05:11:13;0.60;;;0.60;;
18224;SDS011;9237;48.590;8.854;2023-07-30T05:13:40;0.63;;;0.63;;
18224;SDS011;9237;48.590;8.854;2023-07-30T05:16:07;0.60;;;0.60;;
18224;SDS011;9237;48.590;8.854;2023-07-30T05:18:34;0.60;;;0.60;;
18224;SDS011;9237;48.590;8.854;2023-07-30T05:21:00;0.60;;;0.60;;
18224;SDS011;9237;48.590;8.854;2023-07-30T05:23:28;0.60;;;0.60;;
18224;SDS011;9237;48.590;8.854;2023-07-30T05:25:55;0.60;;;0.60;;
18224;SDS011;9237;48.590;8.854;2023-07-30T05:28:22;0.60;;;0.60;;
18224;SDS011;9237;48.590;8.854;2023-07-30T05:30:49;0.60;;;0.60;;
18224;SDS011;9237;48.590;8.854;2023-07-30T05:33:15;0.60;;;0.60;;
18224;SDS011;9237;48.590;8.854;2023-07-30T05:35:42;0.60;;;0.60;;
18224;SDS011;9237;48.590;8.854;2023-07-30T05:38:09;0.70;;;0.70;;
18224;SDS011;9237;48.590;8.854;2023-07-30T05:40:37;0.60;;;0.60;;
18224;SDS011;9237;48.590;8.854;2023-07-30T05:43:04;0.63;;;0.63;;
18224;SDS011;9237;48.590;8.854;2023-07-30T05:45:31;0.60;;;0.60;;
18224;SDS011;9237;48.590;8.854;2023-07-30T05:47:58;0.60;;;0.60;;
18224;SDS011;9237;48.590;8.854;2023-07-30T05:50:24;0.60;;;0.60;;
18224;SDS011;9237;48.590;8.854;2023-07-30T05:52:51;0.70;;;0.70;;
18224;SDS011;9237;48.590;8.854;2023-07-30T05:55:18;0.60;;;0.60;;
18224;SDS011;9237;48.590;8.854;2023-07-30T05:57:46;0.70;;;0.70;;
18224;SDS011;9237;48.590;8.854;2023-07-30T06:00:13;0.60;;;0.60;;
18224;SDS011;9237;48.590;8.854;2023-07-30T06:02:40;0.60;;;0.60;;
18224;SDS011;9237;48.590;8.854;2023-07-30T06:05:07;0.60;;;0.60;;
18224;SDS011;9237;48.590;8.854;2023-07-30T06:07:34;0.60;;;0.60;;
18224;SDS011;9237;48.590;8.854;2023-07-30T06:10:00;0.50;;;0.50;;
18224;SDS011;9237;48.590;8.854;2023-07-30T06:12:27;0.60;;;0.60;;
18224;SDS011;9237;48.590;8.854;2023-07-30T06:14:55;0.60;;;0.60;;
18224;SDS011;9237;48.590;8.854;2023-07-30T06:17:22;0.60;;;0.60;;
18224;SDS011;9237;48.590;8.854;2023-07-30T06:19:50;0.70;;;0.70;;
18224;SDS011;9237;48.590;8.854;2023-07-30T06:22:17;0.60;;;0.60;;
18224;SDS011;9237;48.590;8.854;2023-07-30T06:24:44;0.60;;;0.60;;
18224;SDS011;9237;48.590;8.854;2023-07-30T06:27:11;0.60;;;0.60;;
18224;SDS011;9237;48.590;8.854;2023-07-30T06:29:38;0.60;;;0.60;;
18224;SDS011;9237;48.590;8.854;2023-07-30T06:32:06;0.60;;;0.60;;
18224;SDS011;9237;48.590;8.854;2023-07-30T06:34:33;0.60;;;0.60;;
18224;SDS011;9237;48.590;8.854;2023-07-30T06:37:00;0.50;;;0.50;;
18224;SDS011;9237;48.590;8.854;2023-07-30T06:39:27;0.60;;;0.60;;
18224;SDS011;9237;48.590;8.854;2023-07-30T06:41:54;0.60;;;0.60;;
18224;SDS011;9237;48.590;8.854;2023-07-30T06:44:20;0.60;;;0.60;;
18224;SDS011;9237;48.590;8.854;2023-07-30T06:46:49;0.60;;;0.60;;
18224;SDS011;9237;48.590;8.854;2023-07-30T06:49:17;0.60;;;0.60;;
18224;SDS011;9237;48.590;8.854;2023-07-30T06:51:44;0.60;;;0.60;;
18224;SDS011;9237;48.590;8.854;2023-07-30T06:54:11;0.60;;;0.60;;
18224;SDS011;9237;48.590;8.854;2023-07-30T06:56:37;0.60;;;0.60;;
18224;SDS011;9237;48.590;8.854;2023-07-30T06:59:04;0.60;;;0.60;;
18224;SDS011;9237;48.590;8.854;2023-07-30T07:01:31;0.60;;;0.60;;
18224;SDS011;9237;48.590;8.854;2023-07-30T07:03:58;0.60;;;0.60;;
18224;SDS011;9237;48.590;8.854;2023-07-30T07:06:26;0.60;;;0.60;;
18224;SDS011;9237;48.590;8.854;2023-07-30T07:08:52;0.60;;;0.60;;
18224;SDS011;9237;48.590;8.854;2023-07-30T07:11:19;0.60;;;0.60;;
18224;SDS011;9237;48.590;8.854;2023-07-30T07:13:46;0.60;;;0.60;;
18224;SDS011;9237;48.590;8.854;2023-07-30T07:16:13;0.60;;;0.60;;
18224;SDS011;9237;48.590;8.854;2023-07-30T07:18:39;0.60;;;0.60;;
18224;SDS011;9237;48.590;8.854;2023-07-30T07:21:06;0.60;;;0.60;;
18224;SDS011;9237;48.590;8.854;2023-07-30T07:23:35;0.70;;;0.70;;
18224;SDS011;9237;48.590;8.854;2023-07-30T07:26:02;0.60;;;0.60;;
18224;SDS011;9237;48.590;8.854;2023-07-30T07:28:29;0.60;;;0.60;;
18224;SDS011;9237;48.590;8.854;2023-07-30T07:30:55;0.60;;;0.60;;
18224;SDS011;9237;48.590;8.854;2023-07-30T07:33:22;0.60;;;0.60;;
18224;SDS011;9237;48.590;8.854;2023-07-30T07:35:49;0.60;;;0.60;;
18224;SDS011;9237;48.590;8.854;2023-07-30T07:38:16;0.60;;;0.60;;
18224;SDS011;9237;48.590;8.854;2023-07-30T07:40:44;0.60;;;0.60;;
18224;SDS011;9237;48.590;8.854;2023-07-30T07:43:11;0.60;;;0.60;;
18224;SDS011;9237;48.590;8.854;2023-07-30T07:45:38;0.60;;;0.60;;
18224;SDS011;9237;48.590;8.854;2023-07-30T07:48:04;0.60;;;0.60;;
18224;SDS011;9237;48.590;8.854;2023-07-30T07:50:31;0.60;;;0.60;;
18224;SDS011;9237;48.590;8.854;2023-07-30T07:52:58;0.60;;;0.60;;
18224;SDS011;9237;48.590;8.854;2023-07-30T07:55:25;0.60;;;0.60;;
18224;SDS011;9237;48.590;8.854;2023-07-30T07:57:53;0.57;;;0.57;;
18224;SDS011;9237;48.590;8.854;2023-07-30T08:00:19;0.53;;;0.53;;
18224;SDS011;9237;48.590;8.854;2023-07-30T08:02:46;0.70;;;0.70;;
18224;SDS011;9237;48.590;8.854;2023-07-30T08:05:13;0.60;;;0.60;;
18224;SDS011;9237;48.590;8.854;2023-07-30T08:07:41;0.60;;;0.60;;
18224;SDS011;9237;48.590;8.854;2023-07-30T08:10:08;0.60;;;0.60;;
18224;SDS011;9237;48.590;8.854;2023-07-30T08:12:36;0.70;;;0.70;;
18224;SDS011;9237;48.590;8.854;2023-07-30T08:15:04;0.60;;;0.60;;
18224;SDS011;9237;48.590;8.854;2023-07-30T08:17:32;0.60;;;0.60;;
18224;SDS011;9237;48.590;8.854;2023-07-30T08:19:58;0.50;;;0.50;;
18224;SDS011;9237;48.590;8.854;2023-07-30T08:22:25;0.50;;;0.50;;
18224;SDS011;9237;48.590;8.854;2023-07-30T08:24:52;0.60;;;0.60;;
18224;SDS011;9237;48.590;8.854;2023-07-30T08:27:18;0.60;;;0.60;;
18224;SDS011;9237;48.590;8.854;2023-07-30T08:29:45;0.50;;;0.50;;
18224;SDS011;9237;48.590;8.854;2023-07-30T08:32:13;0.60;;;0.60;;
18224;SDS011;9237;48.590;8.854;2023-07-30T08:34:40;0.60;;;0.60;;
18224;SDS011;9237;48.590;8.854;2023-07-30T08:37:07;0.60;;;0.60;;
18224;SDS011;9237;48.590;8.854;2023-07-30T08:39:33;0.50;;;0.50;;
18224;SDS011;9237;48.590;8.854;2023-07-30T08:42:00;0.50;;;0.50;;
18224;SDS011;9237;48.590;8.854;2023-07-30T08:44:28;0.60;;;0.60;;
18224;SDS011;9237;48.590;8.854;2023-07-30T08:46:55;0.50;;;0.50;;
18224;SDS011;9237;48.590;8.854;2023-07-30T08:49:23;0.50;;;0.50;;
18224;SDS011;9237;48.590;8.854;2023-07-30T08:51:53;0.60;;;0.60;;
18224;SDS011;9237;48.590;8.854;2023-07-30T08:54:21;0.57;;;0.57;;
18224;SDS011;9237;48.590;8.854;2023-07-30T08:56:49;0.60;;;0.60;;
18224;SDS011;9237;48.590;8.854;2023-07-30T08:59:17;0.60;;;0.60;;
18224;SDS011;9237;48.590;8.854;2023-07-30T09:01:45;0.60;;;0.60;;
18224;SDS011;9237;48.590;8.854;2023-07-30T09:04:14;0.60;;;0.60;;
18224;SDS011;9237;48.590;8.854;2023-07-30T09:06:45;0.60;;;0.60;;
18224;SDS011;9237;48.590;8.854;2023-07-30T09:09:14;0.60;;;0.60;;
18224;SDS011;9237;48.590;8.854;2023-07-30T09:11:41;0.60;;;0.60;;
18224;SDS011;9237;48.590;8.854;2023-07-30T09:14:08;0.60;;;0.60;;
18224;SDS011;9237;48.590;8.854;2023-07-30T09:16:36;0.60;;;0.60;;
18224;SDS011;9237;48.590;8.854;2023-07-30T09:19:02;0.60;;;0.60;;
18224;SDS011;9237;48.590;8.854;2023-07-30T09:21:32;0.70;;;0.70;;
18224;SDS011;9237;48.590;8.854;2023-07-30T09:24:02;0.60;;;0.60;;
18224;SDS011;9237;48.590;8.854;2023-07-30T09:26:39;0.70;;;0.70;;
18224;SDS011;9237;48.590;8.854;2023-07-30T09:29:08;0.70;;;0.70;;
18224;SDS011;9237;48.590;8.854;2023-07-30T09:34:23;0.70;;;0.70;;
18224;SDS011;9237;48.590;8.854;2023-07-30T09:36:51;0.70;;;0.70;;
18224;SDS011;9237;48.590;8.854;2023-07-30T09:39:21;0.70;;;0.70;;
18224;SDS011;9237;48.590;8.854;2023-07-30T09:41:49;0.70;;;0.70;;
18224;SDS011;9237;48.590;8.854;2023-07-30T09:44:17;0.70;;;0.70;;
18224;SDS011;9237;48.590;8.854;2023-07-30T09:46:45;0.70;;;0.70;;
18224;SDS011;9237;48.590;8.854;2023-07-30T09:49:13;0.60;;;0.60;;
18224;SDS011;9237;48.590;8.854;2023-07-30T09:51:40;0.60;;;0.60;;
18224;SDS011;9237;48.590;8.854;2023-07-30T09:54:08;0.60;;;0.60;;
18224;SDS011;9237;48.590;8.854;2023-07-30T09:56:38;0.60;;;0.60;;
18224;SDS011;9237;48.590;8.854;2023-07-30T09:59:06;0.60;;;0.60;;
18224;SDS011;9237;48.590;8.854;2023-07-30T10:01:35;0.60;;;0.60;;
18224;SDS011;9237;48.590;8.854;2023-07-30T10:04:08;0.60;;;0.60;;
18224;SDS011;9237;48.590;8.854;2023-07-30T10:06:36;0.60;;;0.60;;
18224;SDS011;9237;48.590;8.854;2023-07-30T10:09:07;0.60;;;0.60;;
18224;SDS011;9237;48.590;8.854;2023-07-30T10:11:37;0.50;;;0.50;;
18224;SDS011;9237;48.590;8.854;2023-07-30T10:14:07;0.50;;;0.50;;
18224;SDS011;9237;48.590;8.854;2023-07-30T10:16:34;0.60;;;0.60;;
18224;SDS011;9237;48.590;8.854;2023-07-30T10:19:01;0.50;;;0.50;;
18224;SDS011;9237;48.590;8.854;2023-07-30T10:21:28;0.50;;;0.50;;
18224;SDS011;9237;48.590;8.854;2023-07-30T10:23:58;0.45;;;0.45;;
18224;SDS011;9237;48.590;8.854;2023-07-30T10:26:26;0.50;;;0.50;;
18224;SDS011;9237;48.590;8.854;2023-07-30T10:31:38;0.50;;;0.50;;
18224;SDS011;9237;48.590;8.854;2023-07-30T10:34:06;0.50;;;0.50;;
18224;SDS011;9237;48.590;8.854;2023-07-30T10:36:34;0.50;;;0.50;;
18224;SDS011;9237;48.590;8.854;2023-07-30T10:39:11;0.50;;;0.50;;
18224;SDS011;9237;48.590;8.854;2023-07-30T10:41:39;0.50;;;0.50;;
18224;SDS011;9237;48.590;8.854;2023-07-30T10:44:06;0.50;;;0.50;;
18224;SDS011;9237;48.590;8.854;2023-07-30T10:46:34;0.50;;;0.50;;
18224;SDS011;9237;48.590;8.854;2023-07-30T10:49:03;0.50;;;0.50;;
18224;SDS011;9237;48.590;8.854;2023-07-30T10:51:31;0.50;;;0.50;;
18224;SDS011;9237;48.590;8.854;2023-07-30T10:53:59;0.50;;;0.50;;
18224;SDS011;9237;48.590;8.854;2023-07-30T10:56:25;0.50;;;0.50;;
18224;SDS011;9237;48.590;8.854;2023-07-30T10:58:53;0.50;;;0.50;;
18224;SDS011;9237;48.590;8.854;2023-07-30T11:01:20;0.50;;;0.50;;
18224;SDS011;9237;48.590;8.854;2023-07-30T11:03:52;0.50;;;0.50;;
18224;SDS011;9237;48.590;8.854;2023-07-30T11:06:22;0.40;;;0.40;;
18224;SDS011;9237;48.590;8.854;2023-07-30T11:08:49;0.50;;;0.50;;
18224;SDS011;9237;48.590;8.854;2023-07-30T11:11:16;0.50;;;0.50;;
18224;SDS011;9237;48.590;8.854;2023-07-30T11:13:43;0.40;;;0.40;;
18224;SDS011;9237;48.590;8.854;2023-07-30T11:16:12;0.40;;;0.40;;
18224;SDS011;9237;48.590;8.854;2023-07-30T11:18:39;0.50;;;0.50;;
18224;SDS011;9237;48.590;8.854;2023-07-30T11:21:09;0.50;;;0.50;;
18224;SDS011;9237;48.590;8.854;2023-07-30T11:23:37;0.50;;;0.50;;
18224;SDS011;9237;48.590;8.854;2023-07-30T11:26:06;0.50;;;0.50;;
18224;SDS011;9237;48.590;8.854;2023-07-30T11:28:35;0.50;;;0.50;;
18224;SDS011;9237;48.590;8.854;2023-07-30T11:31:04;0.43;;;0.43;;
18224;SDS011;9237;48.590;8.854;2023-07-30T11:33:32;0.50;;;0.50;;
18224;SDS011;9237;48.590;8.854;2023-07-30T11:36:01;0.40;;;0.40;;
18224;SDS011;9237;48.590;8.854;2023-07-30T11:38:30;0.40;;;0.40;;
18224;SDS011;9237;48.590;8.854;2023-07-30T11:40:58;0.40;;;0.40;;
18224;SDS011;9237;48.590;8.854;2023-07-30T11:43:25;0.50;;;0.50;;
18224;SDS011;9237;48.590;8.854;2023-07-30T11:46:08;0.47;;;0.47;;
18224;SDS011;9237;48.590;8.854;2023-07-30T11:48:38;0.40;;;0.40;;
18224;SDS011;9237;48.590;8.854;2023-07-30T11:51:06;0.50;;;0.50;;
18224;SDS011;9237;48.590;8.854;2023-07-30T11:53:46;0.40;;;0.40;;
18224;SDS011;9237;48.590;8.854;2023-07-30T11:56:16;0.50;;;0.50;;
18224;SDS011;9237;48.590;8.854;2023-07-30T11:58:44;0.45;;;0.45;;
18224;SDS011;9237;48.590;8.854;2023-07-30T12:01:11;0.43;;;0.43;;
18224;SDS011;9237;48.590;8.854;2023-07-30T12:03:38;0.40;;;0.40;;
18224;SDS011;9237;48.590;8.854;2023-07-30T12:06:06;0.50;;;0.50;;
18224;SDS011;9237;48.590;8.854;2023-07-30T12:08:33;0.50;;;0.50;;
18224;SDS011;9237;48.590;8.854;2023-07-30T12:11:03;0.50;;;0.50;;
18224;SDS011;9237;48.590;8.854;2023-07-30T12:13:32;0.50;;;0.50;;
18224;SDS011;9237;48.590;8.854;2023-07-30T12:15:59;0.57;;;0.57;;
18224;SDS011;9237;48.590;8.854;2023-07-30T12:18:26;0.60;;;0.60;;
18224;SDS011;9237;48.590;8.854;2023-07-30T12:20:54;0.50;;;0.50;;
18224;SDS011;9237;48.590;8.854;2023-07-30T12:23:21;0.57;;;0.57;;
18224;SDS011;9237;48.590;8.854;2023-07-30T12:25:48;0.57;;;0.57;;
18224;SDS011;9237;48.590;8.854;2023-07-30T12:28:16;0.50;;;0.50;;
18224;SDS011;9237;48.590;8.854;2023-07-30T12:30:43;0.50;;;0.50;;
18224;SDS011;9237;48.590;8.854;2023-07-30T12:33:10;0.50;;;0.50;;
18224;SDS011;9237;48.590;8.854;2023-07-30T12:35:36;0.50;;;0.50;;
18224;SDS011;9237;48.590;8.854;2023-07-30T12:38:03;0.50;;;0.50;;
18224;SDS011;9237;48.590;8.854;2023-07-30T12:40:30;0.60;;;0.60;;
18224;SDS011;9237;48.590;8.854;2023-07-30T12:42:59;0.50;;;0.50;;
18224;SDS011;9237;48.590;8.854;2023-07-30T12:45:29;0.40;;;0.40;;
18224;SDS011;9237;48.590;8.854;2023-07-30T12:47:56;0.40;;;0.40;;
18224;SDS011;9237;48.590;8.854;2023-07-30T12:50:23;0.47;;;0.47;;
18224;SDS011;9237;48.590;8.854;2023-07-30T12:52:50;0.50;;;0.50;;
18224;SDS011;9237;48.590;8.854;2023-07-30T12:55:17;0.40;;;0.40;;
18224;SDS011;9237;48.590;8.854;2023-07-30T12:57:44;0.40;;;0.40;;
18224;SDS011;9237;48.590;8.854;2023-07-30T13:00:11;0.40;;;0.40;;
18224;SDS011;9237;48.590;8.854;2023-07-30T13:02:39;0.40;;;0.40;;
18224;SDS011;9237;48.590;8.854;2023-07-30T13:05:06;0.45;;;0.45;;
18224;SDS011;9237;48.590;8.854;2023-07-30T13:07:33;0.50;;;0.50;;
18224;SDS011;9237;48.590;8.854;2023-07-30T13:10:04;0.50;;;0.50;;
18224;SDS011;9237;48.590;8.854;2023-07-30T13:12:32;0.50;;;0.50;;
18224;SDS011;9237;48.590;8.854;2023-07-30T13:14:59;0.50;;;0.50;;
18224;SDS011;9237;48.590;8.854;2023-07-30T13:17:27;0.60;;;0.60;;
18224;SDS011;9237;48.590;8.854;2023-07-30T13:19:55;0.50;;;0.50;;
18224;SDS011;9237;48.590;8.854;2023-07-30T13:22:22;0.60;;;0.60;;
18224;SDS011;9237;48.590;8.854;2023-07-30T13:24:48;0.60;;;0.60;;
18224;SDS011;9237;48.590;8.854;2023-07-30T13:27:16;0.50;;;0.50;;
18224;SDS011;9237;48.590;8.854;2023-07-30T13:29:43;0.50;;;0.50;;
18224;SDS011;9237;48.590;8.854;2023-07-30T13:32:09;0.50;;;0.50;;
18224;SDS011;9237;48.590;8.854;2023-07-30T13:34:36;0.50;;;0.50;;
18224;SDS011;9237;48.590;8.854;2023-07-30T13:37:04;0.50;;;0.50;;
18224;SDS011;9237;48.590;8.854;2023-07-30T13:39:31;0.50;;;0.50;;
18224;SDS011;9237;48.590;8.854;2023-07-30T13:41:58;0.40;;;0.40;;
18224;SDS011;9237;48.590;8.854;2023-07-30T13:44:25;0.45;;;0.45;;
18224;SDS011;9237;48.590;8.854;2023-07-30T13:46:51;0.50;;;0.50;;
18224;SDS011;9237;48.590;8.854;2023-07-30T13:49:18;0.50;;;0.50;;
18224;SDS011;9237;48.590;8.854;2023-07-30T13:51:45;0.40;;;0.40;;
18224;SDS011;9237;48.590;8.854;2023-07-30T13:54:13;0.50;;;0.50;;
18224;SDS011;9237;48.590;8.854;2023-07-30T13:56:40;0.60;;;0.60;;
18224;SDS011;9237;48.590;8.854;2023-07-30T13:59:07;0.50;;;0.50;;
18224;SDS011;9237;48.590;8.854;2023-07-30T14:01:34;0.50;;;0.50;;
18224;SDS011;9237;48.590;8.854;2023-07-30T14:04:00;0.50;;;0.50;;
18224;SDS011;9237;48.590;8.854;2023-07-30T14:06:27;0.50;;;0.50;;
18224;SDS011;9237;48.590;8.854;2023-07-30T14:08:55;0.50;;;0.50;;
18224;SDS011;9237;48.590;8.854;2023-07-30T14:11:25;0.50;;;0.50;;
18224;SDS011;9237;48.590;8.854;2023-07-30T14:13:52;0.50;;;0.50;;
18224;SDS011;9237;48.590;8.854;2023-07-30T14:16:19;0.50;;;0.50;;
18224;SDS011;9237;48.590;8.854;2023-07-30T14:18:46;0.50;;;0.50;;
18224;SDS011;9237;48.590;8.854;2023-07-30T14:21:12;0.50;;;0.50;;
18224;SDS011;9237;48.590;8.854;2023-07-30T14:23:39;0.50;;;0.50;;
18224;SDS011;9237;48.590;8.854;2023-07-30T14:26:06;0.50;;;0.50;;
18224;SDS011;9237;48.590;8.854;2023-07-30T14:28:34;0.40;;;0.40;;
18224;SDS011;9237;48.590;8.854;2023-07-30T14:31:01;0.50;;;0.50;;
18224;SDS011;9237;48.590;8.854;2023-07-30T14:33:28;0.40;;;0.40;;
18224;SDS011;9237;48.590;8.854;2023-07-30T14:35:55;0.50;;;0.50;;
18224;SDS011;9237;48.590;8.854;2023-07-30T14:38:21;0.47;;;0.47;;
18224;SDS011;9237;48.590;8.854;2023-07-30T14:40:48;0.40;;;0.40;;
18224;SDS011;9237;48.590;8.854;2023-07-30T14:43:15;0.50;;;0.50;;
18224;SDS011;9237;48.590;8.854;2023-07-30T14:45:43;0.40;;;0.40;;
18224;SDS011;9237;48.590;8.854;2023-07-30T14:48:10;0.50;;;0.50;;
18224;SDS011;9237;48.590;8.854;2023-07-30T14:50:37;0.50;;;0.50;;
18224;SDS011;9237;48.590;8.854;2023-07-30T14:53:03;0.52;;;0.52;;
18224;SDS011;9237;48.590;8.854;2023-07-30T14:55:30;0.50;;;0.50;;
18224;SDS011;9237;48.590;8.854;2023-07-30T14:57:57;0.52;;;0.52;;
18224;SDS011;9237;48.590;8.854;2023-07-30T15:00:25;0.50;;;0.50;;
18224;SDS011;9237;48.590;8.854;2023-07-30T15:02:53;0.50;;;0.50;;
18224;SDS011;9237;48.590;8.854;2023-07-30T15:05:20;0.50;;;0.50;;
18224;SDS011;9237;48.590;8.854;2023-07-30T15:07:47;0.50;;;0.50;;